LIBN/LCC METAR and TAF weather

Enter ICAO airport designator
Station Type Date Time Source
LIBN METAR 2020/08/14 00:55 UTC NOAA

LIBN 140055Z 00000KT CAVOK 21/20 Q1015 RMK SKC VIS MIN 9999 WIND THR14 00000KT WIND THR32 00000KT BLU


Station Type Date Time Source
LIBN Decoded METAR 2020/08/14 00:55 UTC NOAA

Lecce, Italy (LIBN) 40-14N 018-09E 61M
Aug 13, 2020 - 08:55 PM EDT / 2020.08.14 0055 UTC
Wind: Calm:0
Visibility: greater than 7 mile(s):0
Temperature: 69 F (21 C)
Dew Point: 68 F (20 C)
Relative Humidity: 94%
Pressure (altimeter): 29.97 in. Hg (1015 hPa)
ob: LIBN 140055Z 00000KT CAVOK 21/20 Q1015 RMK SKC VIS MIN 9999 WIND THR14 00000KT WIND THR32 00000KT BLU
cycle: 1

Station Type Date Time Source
LIBN TAF 2020/06/22 12:27 UTC NOAA

TAF TAF LIBN 221100Z 2212/2224 34017KT 9999 SCT030
TEMPO 2212/2217 34017G30KT 6000 RA BKN025

Example: see airport list